Terminal Aerodrome Forecast
Issued by NWS

Home | Current Version | Previous Version | Text Only | Print | Product List | Glossary On
Versions: 1 2 3 4 5 6 7 8 9 10 11 12 13 14
000
FTUS45 KABQ 312008 AAA
TAFGUP
TAF AMD
KGUP 312008Z 3120/0118 26007KT P6SM VCTS SCT080CB BKN120
     FM312300 17008KT P6SM VCSH SCT070 BKN100
     FM010700 19004KT P6SM SCT035 BKN060=

USA.gov is the U.S. government's official web portal to all federal, state and local government web resources and services.